Time;durP1;ratioP1;P1;durP2;ratioP2;P2;SDS_P1;SDS_P2;PMS_P1;PMS_P2;Temp;Humidity;BMP_temperature;BMP_pressure;BME280_temperature;BME280_humidity;BME280_pressure;Samples;Min_cycle;Max_cycle;Signal;HPM_P1;HPM_P2
2022/07/07 03:40:23;;;;;;;;;;;;;;;8.98;92.89;100161.19;6184095;23;19942;-91
2022/07/07 03:43:11;;;;;;;;;;;;;;;9.08;93.92;100152.09;6215178;23;19994;-90
2022/07/07 03:45:36;;;;;;;;;;;;;;;8.82;93.33;100160.78;6220060;23;19938;-90
2022/07/07 03:48:22;;;;;;;;;;;;;;;9.09;94.55;100161.72;6220258;23;20311;-90
2022/07/07 03:50:50;;;;;;;;;;;;;;;8.93;93.71;100155.19;6244550;23;19934;-90
2022/07/07 03:53:17;;;;;;;;;;;;;;;9.25;95.34;100157.72;6221412;23;19908;-93
2022/07/07 03:56:03;;;;;;;;;;;;;;;8.90;93.03;100164.94;6221543;23;19919;-94
2022/07/07 03:58:28;;;;;;;;;;;;;;;9.34;95.27;100159.19;6221077;23;20341;-92
2022/07/07 04:03:57;;;;;;;;;;;;;;;9.07;93.84;100166.22;6242872;23;20297;-92
2022/07/07 04:06:23;;;;;;;;;;;;;;;9.03;93.30;100167.19;6229758;22;19950;-92
2022/07/07 04:08:49;;;;;;;;;;;;;;;9.12;93.89;100166.94;6220830;23;19919;-91
2022/07/07 04:11:15;;;;;;;;;;;;;;;8.87;92.36;100165.03;6220967;23;19919;-91
2022/07/07 04:13:40;;;;;;;;;;;;;;;9.16;94.02;100167.69;6220452;23;19911;-90
2022/07/07 04:16:05;;;;;;;;;;;;;;;9.06;93.14;100170.63;6220234;23;20039;-90
2022/07/07 04:19:15;;;;;;;;;;;;;;;9.15;94.70;100161.53;6220133;23;19993;-90
2022/07/07 04:21:40;;;;;;;;;;;;;;;9.09;93.97;100172.31;6219928;23;19920;-91
2022/07/07 04:24:05;;;;;;;;;;;;;;;9.04;94.12;100166.31;6220229;23;19914;-91
2022/07/07 04:26:31;;;;;;;;;;;;;;;9.15;94.21;100169.47;6219912;23;20486;-90
2022/07/07 04:28:56;;;;;;;;;;;;;;;9.01;93.99;100158.47;6220116;23;19911;-90
2022/07/07 04:31:24;;;;;;;;;;;;;;;9.05;94.07;100160.13;6219785;23;19922;-90
2022/07/07 04:33:51;;;;;;;;;;;;;;;9.02;94.43;100157.56;6220249;23;19916;-91
2022/07/07 04:36:17;;;;;;;;;;;;;;;9.16;94.92;100146.53;6218576;23;20239;-91
2022/07/07 04:38:42;;;;;;;;;;;;;;;8.98;93.85;100155.91;6219871;23;19916;-91
2022/07/07 04:41:07;;;;;;;;;;;;;;;9.03;94.74;100156.63;6219991;23;19938;-92
2022/07/07 04:43:32;;;;;;;;;;;;;;;8.79;93.80;100150.31;6220192;23;20374;-91
2022/07/07 08:24:31;;;;;;;;;;;;;;;13.69;98.56;100156.69;6277650;22;19919;-93
2022/07/07 08:26:59;;;;;;;;;;;;;;;11.77;100.00;100160.00;6250801;22;19919;-92
2022/07/07 08:30:01;;;;;;;;;;;;;;;;;;;;;
2022/07/07 08:39:08;;;;;;;;;;;;;;;;;;;;;
2022/07/07 09:06:47;;;;;;;;;;;;;;;;;;;;;
2022/07/07 09:10:14;;;;;;;;;;;;;;;;;;;;;
2022/07/07 09:44:21;;;;;;;;;;;;;;;;;;;;;
2022/07/07 09:50:32;;;;;;;;;;;;;;;;;;;;;
2022/07/07 09:53:49;;;;;;;;;;;;;;;;;;;;;
2022/07/07 10:09:27;;;;;;;;;;;;;;;;;;;;;
2022/07/07 10:12:53;;;;;;;;;;;;;;;;;;;;;
2022/07/07 10:15:13;;;;;;;;;;;;;;;;;;;;;
2022/07/07 10:45:28;;;;;;;;;;;;;;;;;;;;;
2022/07/07 11:00:31;;;;;;;;;;;;;;;11.32;99.66;100252.97;6276108;22;19923;-89
2022/07/07 11:13:09;;;;;;;;;;;;;;;;;;;;;
2022/07/07 11:19:31;;;;;;;;;;;;;;;;;;;;;
2022/07/07 11:41:15;;;;;;;;;;;;;;;;;;;;;
2022/07/07 11:47:31;;;;;;;;;;;;;;;;;;;;;
2022/07/07 12:12:20;;;;;;;;;;;;;;;;;;;;;
2022/07/07 12:21:36;;;;;;;;;;;;;;;;;;;;;
2022/07/07 12:34:08;;;;;;;;;;;;;;;10.64;94.89;100334.97;5976208;23;20063;-86
2022/07/07 12:40:12;;;;;;;;;;;;;;;;;;;;;
2022/07/07 12:43:10;;;;;;;;;;;;;;;;;;;;;
2022/07/07 12:45:49;;;;;;;;;;;;;;;;;;;;;
2022/07/07 12:48:26;;;;;;;;;;;;;;;10.78;95.56;100338.00;6151387;23;19991;-88
2022/07/07 12:51:12;;;;;;;;;;;;;;;;;;;;;
2022/07/07 12:54:11;;;;;;;;;;;;;;;;;;;;;
2022/07/07 13:45:34;;;;;;;;;;;;;;;;;;;;;
2022/07/07 13:48:36;;;;;;;;;;;;;;;;;;;;;
2022/07/07 14:00:38;;;;;;;;;;;;;;;11.05;97.55;100407.75;5816264;24;19979;-88
2022/07/07 14:03:08;;;;;;;;;;;;;;;10.86;96.37;100417.28;5783082;24;19921;-88
2022/07/07 14:53:52;;;;;;;;;;;;;;;;;;;;;
2022/07/07 14:56:22;;;;;;;;;;;;;;;;;;;;;
2022/07/07 14:59:20;;;;;;;;;;;;;;;;;;;;;
2022/07/07 15:02:37;;;;;;;;;;;;;;;;;;;;;
2022/07/07 15:04:56;;;;;;;;;;;;;;;10.93;96.37;100442.69;6019904;23;19914;-87
2022/07/07 15:07:41;;;;;;;;;;;;;;;10.88;95.31;100434.00;6039155;23;19945;-87
2022/07/07 15:13:47;;;;;;;;;;;;;;;;;;;;;
2022/07/07 15:17:04;;;;;;;;;;;;;;;;;;;;;
2022/07/07 15:19:48;;;;;;;;;;;;;;;10.49;94.59;100451.16;6035015;23;19969;-88
2022/07/07 15:22:35;;;;;;;;;;;;;;;10.90;96.18;100451.59;6114645;23;19920;-87
2022/07/07 15:25:13;;;;;;;;;;;;;;;;;;;;;
2022/07/07 15:28:04;;;;;;;;;;;;;;;10.60;94.88;100450.81;6123385;23;19996;-87
2022/07/07 15:30:59;;;;;;;;;;;;;;;;;;;;;
2022/07/07 15:36:32;;;;;;;;;;;;;;;10.46;94.40;100458.34;6157662;22;20323;-87
2022/07/07 15:39:18;;;;;;;;;;;;;;;10.59;94.50;100454.38;6249187;22;20377;-87
2022/07/07 15:41:45;;;;;;;;;;;;;;;10.49;92.74;100461.75;6250487;22;19919;-87
2022/07/07 15:44:11;;;;;;;;;;;;;;;10.69;94.47;100466.44;6277465;22;19911;-87
2022/07/07 15:46:36;;;;;;;;;;;;;;;10.38;92.60;100466.53;6250646;22;20270;-88
2022/07/07 15:49:12;;;;;;;;;;;;;;;10.65;94.94;100470.06;6277517;22;20248;-87
2022/07/07 15:52:06;;;;;;;;;;;;;;;10.29;92.47;100478.25;6250509;22;19911;-86
2022/07/07 15:54:44;;;;;;;;;;;;;;;;;;;;;
2022/07/07 15:57:39;;;;;;;;;;;;;;;10.51;93.53;100461.72;6213412;23;19983;-87
2022/07/07 16:00:40;;;;;;;;;;;;;;;;;;;;;
2022/07/07 16:04:33;;;;;;;;;;;;;;;10.47;94.43;100470.69;6213604;23;19990;-87
2022/07/07 16:06:27;;;;;;;;;;;;;;;10.53;94.05;100470.50;6212380;23;19974;-87
2022/07/07 16:09:26;;;;;;;;;;;;;;;;;;;;;
2022/07/07 16:12:01;;;;;;;;;;;;;;;10.65;96.60;100480.69;6213477;23;20435;-88
2022/07/07 16:14:39;;;;;;;;;;;;;;;;;;;;;
2022/07/07 16:20:22;;;;;;;;;;;;;;;10.56;95.55;100475.66;6214468;22;19915;-86
2022/07/07 16:26:07;;;;;;;;;;;;;;;10.44;95.83;100491.97;6183024;23;19979;-86
2022/07/07 16:29:06;;;;;;;;;;;;;;;10.69;94.96;100481.44;6157919;23;20355;-86
2022/07/07 16:32:10;;;;;;;;;;;;;;;;;;;;;
2022/07/07 16:34:57;;;;;;;;;;;;;;;10.60;95.83;100472.00;6061983;23;19991;-87
2022/07/07 16:38:02;;;;;;;;;;;;;;;;;;;;;
2022/07/07 16:40:47;;;;;;;;;;;;;;;10.25;93.71;100476.59;6182180;23;19999;-87
2022/07/07 16:43:23;;;;;;;;;;;;;;;10.53;96.07;100476.66;6273608;22;19996;-87
2022/07/07 16:45:54;;;;;;;;;;;;;;;10.19;93.64;100479.44;6276039;22;19911;-87
2022/07/07 16:48:22;;;;;;;;;;;;;;;10.48;95.16;100478.59;6276211;22;19968;-87
2022/07/07 16:51:04;;;;;;;;;;;;;;;10.34;94.55;100476.34;6249006;22;19911;-87
2022/07/07 16:53:47;;;;;;;;;;;;;;;10.30;95.06;100481.75;6247667;22;19907;-88
2022/07/07 16:56:31;;;;;;;;;;;;;;;10.60;95.87;100482.63;6249573;22;20004;-87
2022/07/07 16:59:19;;;;;;;;;;;;;;;10.31;94.86;100484.38;6249753;22;19907;-88
2022/07/07 17:01:51;;;;;;;;;;;;;;;10.55;96.18;100489.84;6245839;22;19996;-88
2022/07/07 17:07:44;;;;;;;;;;;;;;;10.37;93.76;100499.25;6260315;22;20296;-88
2022/07/07 17:10:41;;;;;;;;;;;;;;;10.63;95.67;100495.78;6245377;22;20223;-88
2022/07/07 17:13:11;;;;;;;;;;;;;;;10.56;94.50;100496.88;6257774;22;19961;-87
2022/07/07 17:15:38;;;;;;;;;;;;;;;10.40;93.95;100501.78;6275852;22;20326;-87
2022/07/07 17:18:03;;;;;;;;;;;;;;;10.48;95.39;100496.25;6249018;22;19915;-86
2022/07/07 17:20:40;;;;;;;;;;;;;;;10.21;94.57;100496.16;6249174;22;19915;-87
2022/07/07 17:23:14;;;;;;;;;;;;;;;10.62;96.04;100496.69;6274502;22;19915;-87
2022/07/07 17:25:42;;;;;;;;;;;;;;;10.14;93.94;100489.31;6249141;22;19969;-86
2022/07/07 17:28:21;;;;;;;;;;;;;;;10.46;96.71;100498.09;6275169;22;19922;-88
2022/07/07 17:30:54;;;;;;;;;;;;;;;10.27;95.65;100503.03;6248990;22;19915;-87
2022/07/07 17:33:31;;;;;;;;;;;;;;;10.48;96.14;100505.09;6248483;22;20315;-86
2022/07/07 17:38:49;;;;;;;;;;;;;;;10.23;94.53;100507.56;6274910;22;20293;-87
2022/07/07 17:41:22;;;;;;;;;;;;;;;10.50;96.86;100503.25;6275739;22;19986;-87
2022/07/07 17:43:50;;;;;;;;;;;;;;;10.21;95.91;100508.53;6248616;22;20255;-86
2022/07/07 17:46:29;;;;;;;;;;;;;;;10.52;97.09;100511.16;6248634;22;19919;-87
2022/07/07 17:49:07;;;;;;;;;;;;;;;10.35;96.01;100512.53;6274499;22;19912;-87
2022/07/07 17:51:41;;;;;;;;;;;;;;;10.43;96.32;100522.03;6274943;22;19990;-86
2022/07/07 17:54:20;;;;;;;;;;;;;;;10.29;96.03;100510.03;6247178;22;19912;-88
2022/07/07 17:56:56;;;;;;;;;;;;;;;;;;;;;
2022/07/07 17:59:26;;;;;;;;;;;;;;;10.53;96.54;100513.75;6275117;22;20302;-86
2022/07/07 18:02:12;;;;;;;;;;;;;;;10.23;95.80;100517.28;6248618;22;19915;-88
2022/07/07 18:04:50;;;;;;;;;;;;;;;;;;;;;
2022/07/07 18:07:29;;;;;;;;;;;;;;;;;;;;;
2022/07/07 18:09:59;;;;;;;;;;;;;;;10.40;96.20;100515.03;6275177;22;20001;-87
2022/07/07 18:12:55;;;;;;;;;;;;;;;;;;;;;
2022/07/07 18:15:23;;;;;;;;;;;;;;;10.34;97.12;100513.44;6172191;23;20486;-86
2022/07/07 18:23:49;;;;;;;;;;;;;;;;;;;;;
2022/07/07 18:26:42;;;;;;;;;;;;;;;10.59;99.88;100522.41;6210511;23;19978;-86
2022/07/07 18:29:16;;;;;;;;;;;;;;;10.54;99.06;100526.06;6185732;23;19916;-87
2022/07/07 18:31:42;;;;;;;;;;;;;;;10.43;98.71;100530.81;6185078;23;19947;-86
2022/07/07 18:34:27;;;;;;;;;;;;;;;10.48;99.33;100530.69;6186218;23;19908;-87
2022/07/07 18:37:15;;;;;;;;;;;;;;;10.27;98.00;100533.03;6198261;22;19915;-87
2022/07/07 18:39:43;;;;;;;;;;;;;;;10.56;99.41;100527.81;6274256;22;19918;-87
2022/07/07 18:42:35;;;;;;;;;;;;;;;;;;;;;
2022/07/07 18:45:03;;;;;;;;;;;;;;;10.41;99.06;100542.41;6275358;22;20030;-87
2022/07/07 18:47:35;;;;;;;;;;;;;;;10.66;99.66;100551.34;6247025;22;19912;-88
2022/07/07 18:52:56;;;;;;;;;;;;;;;10.76;99.85;100548.41;6273834;22;19911;-87
2022/07/07 18:55:36;;;;;;;;;;;;;;;10.52;98.50;100556.19;6247894;22;20295;-87
2022/07/07 18:58:14;;;;;;;;;;;;;;;10.60;98.87;100548.88;6248893;22;19945;-87
2022/07/07 19:00:57;;;;;;;;;;;;;;;;;;;;;
2022/07/07 19:03:53;;;;;;;;;;;;;;;;;;;;;
2022/07/07 19:06:31;;;;;;;;;;;;;;;10.81;99.75;100567.66;6266041;22;19994;-88
2022/07/07 19:08:56;;;;;;;;;;;;;;;10.48;99.07;100559.84;6273533;22;19953;-86
2022/07/07 19:12:33;;;;;;;;;;;;;;;;;;;;;
2022/07/07 19:14:39;;;;;;;;;;;;;;;10.62;99.99;100573.53;6259471;22;19907;-86
2022/07/07 19:17:17;;;;;;;;;;;;;;;10.36;98.68;100569.88;6275502;22;19915;-86
2022/07/07 19:20:03;;;;;;;;;;;;;;;;;;;;;
2022/07/07 19:22:38;;;;;;;;;;;;;;;10.48;99.11;100578.38;6211668;23;20379;-87
2022/07/07 19:25:11;;;;;;;;;;;;;;;10.53;99.31;100584.44;6186536;23;19983;-87
2022/07/07 19:27:51;;;;;;;;;;;;;;;10.61;99.56;100585.06;6186192;23;19916;-87
2022/07/07 19:30:17;;;;;;;;;;;;;;;10.24;97.50;100594.03;6211410;23;19916;-86
2022/07/07 19:33:07;;;;;;;;;;;;;;;10.55;99.32;100598.50;6211619;23;20240;-87
2022/07/07 19:35:55;;;;;;;;;;;;;;;10.46;98.28;100596.13;6198861;23;19939;-87
2022/07/07 19:41:36;;;;;;;;;;;;;;;10.61;98.78;100600.06;6122254;23;19913;-88
2022/07/07 19:44:28;;;;;;;;;;;;;;;;;;;;;
2022/07/07 19:47:06;;;;;;;;;;;;;;;;;;;;;
2022/07/07 19:49:52;;;;;;;;;;;;;;;;;;;;;
2022/07/07 19:52:22;;;;;;;;;;;;;;;10.25;96.91;100622.28;6275174;22;19994;-87
2022/07/07 19:55:00;;;;;;;;;;;;;;;10.64;98.56;100621.19;6274053;22;19938;-87
2022/07/07 19:57:30;;;;;;;;;;;;;;;10.43;97.41;100617.41;6275213;22;20282;-86
2022/07/07 20:00:21;;;;;;;;;;;;;;;10.49;97.82;100623.38;6275342;22;19918;-88
2022/07/07 20:02:59;;;;;;;;;;;;;;;;;;;;;
2022/07/07 20:12:01;;;;;;;;;;;;;;;;;;;;;
2022/07/07 20:14:51;;;;;;;;;;;;;;;10.14;96.20;100649.06;6153480;23;20270;-86
2022/07/07 20:17:17;;;;;;;;;;;;;;;10.47;98.49;100650.84;6128833;23;20341;-87
2022/07/07 20:19:47;;;;;;;;;;;;;;;10.26;97.24;100653.16;6186403;22;19950;-85
2022/07/07 20:25:14;;;;;;;;;;;;;;;10.28;97.86;100661.06;6260406;22;20324;-86
2022/07/07 20:27:49;;;;;;;;;;;;;;;;;;;;;
2022/07/07 20:30:14;;;;;;;;;;;;;;;10.48;97.88;100671.13;6277420;22;20378;-87
2022/07/07 20:33:07;;;;;;;;;;;;;;;10.04;95.48;100676.72;6249689;22;19946;-86
2022/07/07 20:35:52;;;;;;;;;;;;;;;;;;;;;
2022/07/07 20:38:33;;;;;;;;;;;;;;;;;;;;;
2022/07/07 20:41:00;;;;;;;;;;;;;;;10.04;95.57;100691.72;6277346;22;19994;-86
2022/07/07 20:43:39;;;;;;;;;;;;;;;10.31;97.04;100685.69;6276715;22;19942;-86
2022/07/07 20:46:08;;;;;;;;;;;;;;;10.02;95.33;100689.13;6277167;22;20227;-86
2022/07/07 20:48:46;;;;;;;;;;;;;;;;;;;;;
2022/07/07 20:51:21;;;;;;;;;;;;;;;10.04;95.48;100695.25;6276802;22;19982;-86
2022/07/07 20:53:57;;;;;;;;;;;;;;;10.21;95.76;100696.56;6248312;22;19949;-88
2022/07/07 20:56:46;;;;;;;;;;;;;;;10.15;95.76;100700.25;6249857;22;19921;-87
2022/07/07 20:59:13;;;;;;;;;;;;;;;9.93;93.70;100708.75;6275853;22;19912;-87
2022/07/07 21:02:00;;;;;;;;;;;;;;;10.40;96.02;100708.41;6276478;22;19911;-89
2022/07/07 21:04:33;;;;;;;;;;;;;;;10.07;95.44;100712.81;6276267;22;19968;-86
2022/07/07 21:07:04;;;;;;;;;;;;;;;10.19;96.70;100712.50;6248952;22;19912;-87
2022/07/07 21:09:33;;;;;;;;;;;;;;;10.15;96.72;100713.50;6275090;22;19964;-87
2022/07/07 21:12:10;;;;;;;;;;;;;;;10.06;96.23;100714.59;6249191;22;20323;-88
2022/07/07 21:14:56;;;;;;;;;;;;;;;10.26;97.83;100721.13;6276423;22;20327;-88
2022/07/07 21:17:29;;;;;;;;;;;;;;;10.12;96.58;100711.78;6249096;22;20212;-88
2022/07/07 21:20:02;;;;;;;;;;;;;;;10.42;98.21;100725.16;6276831;22;19911;-87
2022/07/07 21:22:33;;;;;;;;;;;;;;;10.18;96.87;100721.38;6276345;22;19918;-88
2022/07/07 21:25:18;;;;;;;;;;;;;;;10.18;96.37;100726.66;6247343;22;19912;-87
2022/07/07 21:27:46;;;;;;;;;;;;;;;10.33;96.17;100733.34;6275329;22;19919;-87
2022/07/07 21:30:12;;;;;;;;;;;;;;;9.90;95.24;100723.84;6249699;22;19915;-86
2022/07/07 21:32:45;;;;;;;;;;;;;;;10.38;96.92;100731.44;6249607;22;19919;-87
2022/07/07 21:35:15;;;;;;;;;;;;;;;10.05;95.08;100727.88;6248977;22;19915;-87
2022/07/07 21:37:59;;;;;;;;;;;;;;;10.25;96.36;100730.88;6247740;22;20379;-87
2022/07/07 21:40:48;;;;;;;;;;;;;;;10.04;95.31;100734.09;6276552;22;20339;-87
2022/07/07 21:43:22;;;;;;;;;;;;;;;9.95;94.29;100732.53;6275589;22;20255;-87
2022/07/07 21:46:16;;;;;;;;;;;;;;;10.13;95.82;100737.38;6248842;22;19911;-87
2022/07/07 21:48:44;;;;;;;;;;;;;;;9.96;93.77;100743.09;6248962;22;20315;-87
2022/07/07 21:51:20;;;;;;;;;;;;;;;10.19;95.06;100744.28;6276101;22;20039;-88
2022/07/07 21:54:05;;;;;;;;;;;;;;;10.05;94.17;100759.66;6247463;22;19915;-87
2022/07/07 21:56:33;;;;;;;;;;;;;;;9.88;93.77;100753.00;6276090;22;19912;-87
2022/07/07 21:59:00;;;;;;;;;;;;;;;10.16;94.86;100749.66;6248465;22;19918;-86
2022/07/07 22:01:26;;;;;;;;;;;;;;;9.77;93.05;100758.56;6276532;22;19916;-86
2022/07/07 22:09:26;;;;;;;;;;;;;;;10.02;94.72;100773.84;6274457;22;19941;-86
2022/07/07 22:11:54;;;;;;;;;;;;;;;9.94;94.30;100771.38;6249128;22;19981;-85
2022/07/07 22:14:26;;;;;;;;;;;;;;;9.99;94.94;100772.13;6249134;22;19960;-86
2022/07/07 22:16:52;;;;;;;;;;;;;;;10.02;94.69;100770.31;6275951;22;19911;-86
2022/07/07 22:19:20;;;;;;;;;;;;;;;9.88;94.03;100774.19;6248481;22;20235;-86
2022/07/07 22:21:47;;;;;;;;;;;;;;;10.22;94.87;100768.03;6248704;22;20018;-86
2022/07/07 22:24:13;;;;;;;;;;;;;;;9.80;93.31;100774.38;6247242;22;19985;-86
2022/07/07 22:26:38;;;;;;;;;;;;;;;10.14;95.17;100781.47;6275825;22;19941;-86
2022/07/07 22:29:03;;;;;;;;;;;;;;;9.76;93.11;100785.06;6275461;22;19919;-87
2022/07/07 22:31:31;;;;;;;;;;;;;;;10.06;95.45;100785.22;6275872;22;19915;-86
2022/07/07 22:33:58;;;;;;;;;;;;;;;9.60;92.13;100785.41;6275650;22;19972;-86
2022/07/07 22:36:27;;;;;;;;;;;;;;;9.57;91.00;100784.59;6243609;23;19927;-86
2022/07/07 22:38:52;;;;;;;;;;;;;;;9.74;92.22;100792.16;6243803;22;19915;-88
2022/07/07 22:41:35;;;;;;;;;;;;;;;9.50;90.08;100789.19;6243655;23;19911;-87
2022/07/07 22:44:01;;;;;;;;;;;;;;;9.78;92.56;100788.53;6245428;22;19922;-86
2022/07/07 22:46:31;;;;;;;;;;;;;;;9.35;89.13;100795.69;6243713;23;19915;-86
2022/07/07 22:48:57;;;;;;;;;;;;;;;9.58;91.18;100795.16;6244880;22;19934;-87
2022/07/07 22:51:29;;;;;;;;;;;;;;;9.53;90.17;100797.03;6243502;23;20335;-87
2022/07/07 22:54:06;;;;;;;;;;;;;;;9.67;90.93;100795.84;6242069;23;19933;-88
2022/07/07 22:56:47;;;;;;;;;;;;;;;9.47;90.19;100794.53;6245050;22;19915;-87
2022/07/07 22:59:20;;;;;;;;;;;;;;;9.45;90.41;100791.06;6243324;23;20507;-86
2022/07/07 23:02:03;;;;;;;;;;;;;;;;;;;;;
2022/07/07 23:04:41;;;;;;;;;;;;;;;;;;;;;
2022/07/07 23:07:09;;;;;;;;;;;;;;;9.55;90.80;100786.44;6244977;23;19998;-86
2022/07/07 23:09:39;;;;;;;;;;;;;;;9.16;88.73;100792.56;6243195;22;19927;-86
2022/07/07 23:12:14;;;;;;;;;;;;;;;9.41;89.31;100794.66;6243206;23;20310;-87
2022/07/07 23:14:41;;;;;;;;;;;;;;;9.27;89.63;100787.06;6245264;22;19907;-87
